Back to top

Cheyenne, WY weather

Cheyenne Regional/Jerry Olson Field, Cheyenne, WY: 7/22/2019 14:53
Visibility10 statute milessun with scattered clouds
View 7-Day Forecast
Area Summary
Sky/CloudsScattered at 3500ft
Weather [last 24 hours]None [rain began 08:06; rain ended 09:12 ]
Pressure30.4 in.Hg (1030 hPa)
3-hour Pressure Tendency0.01772 in.Hg (0.6 hPa) Decreasing, then increasing
Dew Point55.9 °F (13.3 °C)
Relative Humidity53.4 %
Last 24-Hour Precip.0.01 in. (0.254 mm)
Reading TimePrecipitation
6-hr ending 7/22@11:530.01 in. (0.254 mm)
Temperature73.9 °F (23.3 °C)red thermometer
Reading TimeMinimum to Maximum Temperature
6-hr ending 7/22@11:5360.1 °F to 70 °F (15.6 °C to 21.1 °C)
6-hr ending 7/22@05:5360.1 °F to 61 °F (15.6 °C to 16.1 °C)
6-hr ending 7/21@23:5359 °F to 75 °F (15 °C to 23.9 °C)
6-hr ending 7/21@17:5372 °F to 77 °F (22.2 °C to 25 °C)
24-hr ending 7/22@00:5355.9 °F to 77 °F (13.3 °C to 25 °C)
Wind12.7 MPH (11 KT) green arrow pointing 157.5 degrees
Wind FromSouth/Southeast (160 Degrees)
Twilight Begins05:13Sunshine Yesterday
Sunrise05:45N/A
Sunset20:26
Twilight Ends20:58
METARKCYS 222053Z 16011KT 10SM SCT035 23/13 A3040 RMK AO2 SLP215 T02330133 55006
Tags: